Time;durP1;ratioP1;P1;durP2;ratioP2;P2;SDS_P1;SDS_P2;PMS_P1;PMS_P2;Temp;Humidity;BMP_temperature;BMP_pressure;BME280_temperature;BME280_humidity;BME280_pressure;Samples;Min_cycle;Max_cycle;Signal;HPM_P1;HPM_P2
2021/11/05 00:00:24;;;;;;;5.67;3.37;;;;;;;6.32;70.57;98384.55;2106721;84;21337;-81
2021/11/05 00:03:28;;;;;;;6.00;3.80;;;;;;;6.30;70.53;98394.02;2080626;84;21292;-81
2021/11/05 00:06:29;;;;;;;4.50;3.27;;;;;;;6.27;70.66;98409.08;2056172;87;21059;-82
2021/11/05 00:09:29;;;;;;;5.63;3.13;;;;;;;6.22;70.70;98402.05;2055872;87;20980;-83
2021/11/05 00:12:30;;;;;;;9.70;3.70;;;;;;;6.17;70.86;98403.66;2055941;87;20983;-81
2021/11/05 00:15:30;;;;;;;5.83;3.93;;;;;;;6.14;70.84;98406.19;2056066;87;20999;-79
2021/11/05 00:18:31;;;;;;;4.63;3.43;;;;;;;6.11;70.94;98403.11;2056577;87;21387;-81
2021/11/05 00:21:31;;;;;;;5.13;3.30;;;;;;;6.06;71.02;98408.16;2056675;87;21016;-81
2021/11/05 00:24:31;;;;;;;4.83;3.67;;;;;;;6.02;71.10;98409.34;2056400;87;20991;-81
2021/11/05 00:27:32;;;;;;;5.87;3.97;;;;;;;5.99;71.12;98420.52;2056792;87;21046;-81
2021/11/05 00:30:32;;;;;;;5.00;3.50;;;;;;;5.97;71.19;98427.80;2056532;87;20972;-81
2021/11/05 00:33:33;;;;;;;4.23;3.67;;;;;;;5.93;71.25;98436.34;2056440;87;20983;-82
2021/11/05 00:36:33;;;;;;;6.27;4.00;;;;;;;5.88;71.37;98444.38;2055820;87;21090;-81
2021/11/05 00:39:34;;;;;;;4.37;3.30;;;;;;;5.86;71.43;98444.77;2056192;87;20996;-81
2021/11/05 00:42:34;;;;;;;5.83;3.50;;;;;;;5.83;71.61;98436.50;2056042;87;20983;-83
2021/11/05 00:45:35;;;;;;;7.30;3.77;;;;;;;5.83;71.71;98438.22;2056470;87;21367;-81
2021/11/05 00:48:35;;;;;;;4.77;3.60;;;;;;;5.83;71.76;98433.04;2056496;87;21003;-80
2021/11/05 00:51:36;;;;;;;4.23;3.77;;;;;;;5.85;71.77;98437.84;2056299;87;21003;-80
2021/11/05 00:54:36;;;;;;;4.33;3.80;;;;;;;5.85;71.58;98444.31;2056272;87;20997;-81
2021/11/05 00:57:37;;;;;;;4.77;3.97;;;;;;;5.81;71.58;98448.55;2056369;87;21051;-81
2021/11/05 01:00:37;;;;;;;5.00;3.87;;;;;;;5.79;71.71;98437.27;2056480;87;21159;-82
2021/11/05 01:03:38;;;;;;;5.57;4.20;;;;;;;5.80;71.89;98431.67;2060857;85;21082;-82
2021/11/05 01:06:38;;;;;;;5.90;3.97;;;;;;;5.80;71.99;98427.78;2098675;85;21003;-81
2021/11/05 01:09:39;;;;;;;5.17;4.20;;;;;;;5.80;71.85;98443.33;2098746;85;21348;-81
2021/11/05 01:12:39;;;;;;;4.63;4.17;;;;;;;5.80;71.90;98447.20;2099032;84;20964;-81
2021/11/05 01:15:40;;;;;;;5.27;4.33;;;;;;;5.79;72.08;98451.94;2099060;85;20968;-80
2021/11/05 01:18:40;;;;;;;4.37;3.97;;;;;;;5.76;72.06;98460.09;2098882;84;21042;-81
2021/11/05 01:21:41;;;;;;;4.47;3.90;;;;;;;5.75;72.00;98465.23;2099230;85;21019;-81
2021/11/05 01:24:42;;;;;;;5.13;4.47;;;;;;;5.74;72.11;98472.54;2099120;85;20968;-81
2021/11/05 01:27:43;;;;;;;4.67;4.17;;;;;;;5.72;72.20;98470.33;2099084;84;21036;-81
2021/11/05 01:30:43;;;;;;;5.23;3.93;;;;;;;5.70;72.24;98464.23;2099445;85;20971;-80
2021/11/05 01:33:44;;;;;;;5.27;4.53;;;;;;;5.68;72.33;98473.27;2099974;85;21372;-83
2021/11/05 01:36:44;;;;;;;5.20;4.70;;;;;;;5.66;72.32;98477.95;2099682;85;21070;-81
2021/11/05 01:39:45;;;;;;;6.40;4.10;;;;;;;5.61;72.41;98470.06;2099981;85;21031;-81
2021/11/05 01:42:45;;;;;;;3.90;3.60;;;;;;;5.61;72.49;98479.13;2100268;85;20992;-81
2021/11/05 01:45:47;;;;;;;7.07;4.13;;;;;;;5.59;72.57;98479.50;2099869;84;21419;-82
2021/11/05 01:48:48;;;;;;;7.40;4.20;;;;;;;5.56;72.56;98488.48;2100258;85;21364;-81
2021/11/05 01:51:51;;;;;;;9.07;3.93;;;;;;;5.55;72.68;98488.45;2100373;85;21023;-81
2021/11/05 01:54:51;;;;;;;5.17;3.93;;;;;;;5.53;72.72;98495.30;2100467;84;21069;-81
2021/11/05 01:57:51;;;;;;;5.77;3.53;;;;;;;5.52;72.77;98493.55;2100238;85;20980;-82
2021/11/05 02:00:52;;;;;;;3.93;3.63;;;;;;;5.52;72.91;98492.25;2099862;85;20984;-81
2021/11/05 02:03:52;;;;;;;3.90;3.50;;;;;;;5.50;72.93;98496.09;2099047;84;20937;-81
2021/11/05 02:06:53;;;;;;;5.10;3.43;;;;;;;5.47;72.87;98501.19;2099251;84;21427;-81
2021/11/05 02:09:53;;;;;;;5.20;3.93;;;;;;;5.44;72.88;98495.94;2099618;84;21392;-82
2021/11/05 02:12:54;;;;;;;6.33;3.40;;;;;;;5.44;72.94;98498.11;2099525;84;20967;-82
2021/11/05 02:15:55;;;;;;;4.10;3.70;;;;;;;5.42;73.11;98499.78;2099043;84;20968;-81
2021/11/05 02:18:56;;;;;;;6.50;3.93;;;;;;;5.41;73.14;98498.03;2099185;84;21383;-81
2021/11/05 02:21:56;;;;;;;4.23;3.60;;;;;;;5.43;73.11;98505.83;2099147;84;20932;-81
2021/11/05 02:24:57;;;;;;;4.27;3.70;;;;;;;5.42;73.17;98501.48;2099095;84;20996;-81
2021/11/05 02:27:57;;;;;;;5.50;4.03;;;;;;;5.40;73.14;98509.22;2099211;85;20979;-81
2021/11/05 02:30:58;;;;;;;5.60;3.97;;;;;;;5.37;73.20;98501.38;2100028;84;21387;-80
2021/11/05 02:33:58;;;;;;;5.87;4.17;;;;;;;5.38;73.37;98506.13;2100196;85;21044;-82
2021/11/05 02:36:59;;;;;;;4.30;3.90;;;;;;;5.38;73.43;98510.01;2099905;84;21015;-83
2021/11/05 02:39:59;;;;;;;4.43;4.03;;;;;;;5.36;73.42;98511.27;2100708;84;20964;-82
2021/11/05 02:43:01;;;;;;;5.37;4.57;;;;;;;5.34;73.37;98518.11;2100410;84;20984;-82
2021/11/05 02:46:02;;;;;;;5.47;4.60;;;;;;;5.33;73.66;98516.36;2100587;84;21360;-81
2021/11/05 02:49:02;;;;;;;5.67;4.43;;;;;;;5.32;73.64;98515.90;2100722;84;20949;-82
2021/11/05 02:52:03;;;;;;;9.13;5.40;;;;;;;5.31;73.69;98519.32;2100349;85;20987;-80
2021/11/05 02:55:03;;;;;;;5.13;4.60;;;;;;;5.31;73.64;98521.03;2100389;85;21360;-81
2021/11/05 02:58:04;;;;;;;11.73;5.07;;;;;;;5.27;73.66;98520.49;2100552;85;21404;-80
2021/11/05 03:01:04;;;;;;;5.33;4.83;;;;;;;5.26;73.88;98531.67;2100525;84;21023;-81
2021/11/05 03:04:05;;;;;;;7.77;5.20;;;;;;;5.23;73.97;98536.77;2096585;85;20980;-80
2021/11/05 03:07:05;;;;;;;5.90;5.30;;;;;;;5.22;73.90;98537.60;2056529;87;21055;-81
2021/11/05 03:10:06;;;;;;;7.93;5.30;;;;;;;5.21;73.93;98541.02;2056857;87;20952;-81
2021/11/05 03:13:06;;;;;;;8.33;4.83;;;;;;;5.19;74.12;98542.23;2056832;87;20967;-80
2021/11/05 03:16:07;;;;;;;5.73;5.13;;;;;;;5.18;73.98;98549.95;2056783;87;21383;-83
2021/11/05 03:19:08;;;;;;;9.33;5.53;;;;;;;5.13;74.32;98554.59;2056827;87;21292;-81
2021/11/05 03:22:09;;;;;;;6.47;5.83;;;;;;;5.12;74.20;98561.89;2056758;87;21022;-81
2021/11/05 03:25:09;;;;;;;11.60;6.47;;;;;;;5.10;74.06;98562.68;2056981;87;21331;-78
2021/11/05 03:28:10;;;;;;;6.50;5.57;;;;;;;5.07;74.19;98571.64;2056679;87;21336;-78
2021/11/05 03:31:10;;;;;;;7.23;5.80;;;;;;;5.06;74.28;98574.65;2057174;87;20993;-83
2021/11/05 03:34:13;;;;;;;12.17;5.67;;;;;;;5.04;74.34;98572.44;2033612;87;21030;-82
2021/11/05 03:37:13;;;;;;;7.20;4.70;;;;;;;5.01;74.43;98582.69;2057050;87;21035;-80
2021/11/05 03:40:14;;;;;;;6.83;4.93;;;;;;;5.00;74.47;98582.23;2057036;87;21031;-81
2021/11/05 03:43:14;;;;;;;7.93;5.00;;;;;;;4.98;74.45;98586.48;2057295;87;20979;-81
2021/11/05 03:46:15;;;;;;;8.33;5.57;;;;;;;4.97;74.52;98591.19;2057129;87;21007;-80
2021/11/05 03:49:16;;;;;;;7.37;4.70;;;;;;;4.97;74.47;98592.91;2056871;87;21024;-82
2021/11/05 03:52:16;;;;;;;7.27;4.80;;;;;;;4.96;74.61;98605.38;2057018;87;20972;-81
2021/11/05 03:55:17;;;;;;;7.70;5.20;;;;;;;4.94;74.62;98617.38;2056498;87;21023;-81
2021/11/05 03:58:17;;;;;;;6.20;5.20;;;;;;;4.93;74.61;98616.92;2056693;87;21043;-81
2021/11/05 04:01:20;;;;;;;6.90;5.30;;;;;;;4.92;74.65;98619.05;2056665;87;20983;-83
2021/11/05 04:04:20;;;;;;;6.97;4.83;;;;;;;4.90;74.72;98625.47;2059857;85;21409;-80
2021/11/05 04:07:21;;;;;;;6.13;5.53;;;;;;;4.88;74.75;98632.30;2096963;85;21448;-81
2021/11/05 04:10:22;;;;;;;12.63;5.57;;;;;;;4.86;75.03;98636.55;2097551;84;21387;-82
2021/11/05 04:13:22;;;;;;;6.77;6.10;;;;;;;4.85;74.99;98628.33;2097229;84;21041;-82
2021/11/05 04:16:23;;;;;;;7.03;5.83;;;;;;;4.85;74.99;98634.79;2097404;85;21019;-81
2021/11/05 04:19:23;;;;;;;15.33;6.73;;;;;;;4.84;74.96;98641.21;2097034;84;20996;-85
2021/11/05 04:22:24;;;;;;;8.40;6.13;;;;;;;6.62;88.72;98636.75;2097067;84;21004;-82
2021/11/05 04:25:24;;;;;;;8.20;5.90;;;;;;;7.69;73.45;98648.22;2097084;84;21055;-80
2021/11/05 04:28:25;;;;;;;7.70;6.40;;;;;;;6.95;71.11;98650.96;2096751;84;21376;-80
2021/11/05 04:31:26;;;;;;;7.37;4.90;;;;;;;6.36;71.33;98662.45;2097264;85;21043;-79
2021/11/05 04:34:26;;;;;;;6.57;5.63;;;;;;;6.02;71.89;98669.32;2097323;84;20956;-80
2021/11/05 04:37:27;;;;;;;7.73;6.00;;;;;;;5.74;72.30;98666.78;2097035;84;20973;-80
2021/11/05 04:40:27;;;;;;;9.77;6.30;;;;;;;5.52;72.73;98674.36;2097340;84;20977;-80
2021/11/05 04:43:28;;;;;;;10.40;6.40;;;;;;;5.38;73.05;98673.08;2097076;84;21347;-79
2021/11/05 04:46:29;;;;;;;10.23;6.93;;;;;;;5.29;73.37;98685.75;2097015;85;21008;-79
2021/11/05 04:49:29;;;;;;;8.70;6.43;;;;;;;5.20;73.51;98691.91;2096730;85;20984;-79
2021/11/05 04:52:30;;;;;;;9.73;6.77;;;;;;;5.12;73.74;98694.26;2096306;84;21455;-79
2021/11/05 04:55:30;;;;;;;8.27;7.40;;;;;;;5.04;74.12;98688.84;2096340;85;20964;-79
2021/11/05 04:58:31;;;;;;;21.00;7.47;;;;;;;5.01;74.12;98702.10;2096527;85;21004;-79
2021/11/05 05:01:31;;;;;;;7.13;6.40;;;;;;;4.97;74.27;98703.72;2096357;85;20961;-79
2021/11/05 05:04:32;;;;;;;9.53;6.87;;;;;;;4.94;74.66;98705.33;2093345;84;20972;-78
2021/11/05 05:07:33;;;;;;;8.57;6.17;;;;;;;4.93;74.49;98704.45;2054743;87;21011;-79
2021/11/05 05:10:33;;;;;;;15.57;6.60;;;;;;;4.91;74.59;98711.70;2055054;87;20987;-80
2021/11/05 05:13:34;;;;;;;9.23;6.03;;;;;;;4.90;74.76;98709.52;2056083;87;21359;-80
2021/11/05 05:16:34;;;;;;;11.90;5.87;;;;;;;4.89;74.62;98720.70;2055470;87;21363;-79
2021/11/05 05:19:35;;;;;;;8.97;6.40;;;;;;;4.84;74.78;98719.67;2055653;87;21003;-79
2021/11/05 05:22:36;;;;;;;12.37;7.10;;;;;;;4.82;74.65;98729.09;2056130;87;20961;-79
2021/11/05 05:25:42;;;;;;;10.53;7.20;;;;;;;4.75;74.82;98724.13;2056014;87;20994;-80
2021/11/05 05:28:43;;;;;;;8.80;7.23;;;;;;;4.72;74.90;98727.03;2060899;86;20984;-79
2021/11/05 05:31:44;;;;;;;8.23;6.47;;;;;;;4.69;74.96;98725.22;2060482;86;20992;-80
2021/11/05 05:34:44;;;;;;;9.00;6.90;;;;;;;4.69;75.00;98730.81;2060498;86;20987;-80
2021/11/05 05:37:45;;;;;;;11.43;6.87;;;;;;;4.69;74.94;98730.81;2055264;85;21038;-78
2021/11/05 05:40:45;;;;;;;10.90;7.80;;;;;;;4.65;75.11;98733.71;2054417;87;20983;-79
2021/11/05 05:43:46;;;;;;;10.40;7.70;;;;;;;4.64;75.21;98729.78;2054458;87;20955;-77
2021/11/05 05:46:46;;;;;;;11.07;8.23;;;;;;;4.65;75.30;98734.13;2054258;87;20941;-80
2021/11/05 05:49:48;;;;;;;12.67;8.70;;;;;;;4.66;75.00;98740.64;2054699;87;20968;-80
2021/11/05 05:52:49;;;;;;;11.90;7.47;;;;;;;4.64;74.91;98737.53;2054763;87;21378;-78
2021/11/05 05:55:49;;;;;;;12.97;9.03;;;;;;;4.61;75.00;98741.31;2054113;87;21359;-79
2021/11/05 05:58:50;;;;;;;11.83;8.33;;;;;;;4.58;75.14;98743.80;2053805;87;21366;-80
2021/11/05 06:01:50;;;;;;;15.17;9.80;;;;;;;4.60;75.35;98744.72;2054159;87;20932;-79
2021/11/05 06:04:51;;;;;;;13.67;9.57;;;;;;;4.63;75.12;98752.17;2057583;85;20928;-79
2021/11/05 06:07:51;;;;;;;19.23;9.63;;;;;;;4.66;75.02;98760.45;2097960;85;21031;-78
2021/11/05 06:10:52;;;;;;;23.97;9.47;;;;;;;4.69;75.04;98760.13;2097517;84;20953;-79
2021/11/05 06:13:53;;;;;;;14.60;10.50;;;;;;;4.74;74.99;98764.16;2098138;84;21019;-79
2021/11/05 06:16:54;;;;;;;17.13;9.37;;;;;;;4.79;74.91;98759.61;2098134;85;21059;-78
2021/11/05 06:19:54;;;;;;;10.33;9.23;;;;;;;4.86;74.82;98763.69;2098525;84;21023;-79
2021/11/05 06:22:55;;;;;;;14.33;9.80;;;;;;;4.92;74.64;98771.65;2098931;84;20956;-79
2021/11/05 06:25:55;;;;;;;10.10;8.90;;;;;;;4.98;74.54;98774.44;2098393;85;20959;-79
2021/11/05 06:28:58;;;;;;;10.30;9.23;;;;;;;5.06;74.35;98769.09;2098216;85;20944;-79
2021/11/05 06:31:58;;;;;;;12.03;8.13;;;;;;;5.13;74.20;98774.52;2099376;84;21404;-81
2021/11/05 06:35:00;;;;;;;12.50;8.50;;;;;;;5.21;74.05;98772.62;2099169;85;21035;-81
2021/11/05 06:38:00;;;;;;;11.67;9.20;;;;;;;5.29;73.71;98782.80;2099714;85;21075;-81
2021/11/05 06:41:01;;;;;;;13.80;9.10;;;;;;;6.03;73.14;98782.91;2099359;85;20985;-81
2021/11/05 06:44:01;;;;;;;12.70;9.03;;;;;;;5.95;72.47;98788.29;2098958;85;21007;-80
2021/11/05 06:47:02;;;;;;;12.93;9.13;;;;;;;5.92;73.34;98790.80;2098699;85;21013;-81
2021/11/05 06:50:02;;;;;;;10.50;8.27;;;;;;;5.96;72.17;98788.34;2099196;84;20968;-81
2021/11/05 06:53:03;;;;;;;13.73;8.17;;;;;;;5.95;71.79;98794.34;2099153;85;21388;-79
2021/11/05 06:56:03;;;;;;;12.90;8.90;;;;;;;6.00;72.03;98803.55;2099046;85;21426;-81
2021/11/05 06:59:04;;;;;;;9.97;7.80;;;;;;;6.18;72.77;98805.41;2099668;84;20996;-81
2021/11/05 07:02:05;;;;;;;9.40;7.60;;;;;;;6.25;71.32;98811.23;2099511;85;21038;-80
2021/11/05 07:05:05;;;;;;;9.80;7.60;;;;;;;6.26;70.99;98812.11;2096028;84;20953;-80
2021/11/05 07:08:06;;;;;;;12.20;7.63;;;;;;;6.27;71.09;98808.27;2055718;87;21410;-79
2021/11/05 07:11:07;;;;;;;12.33;7.60;;;;;;;6.31;71.22;98811.40;2056012;87;21364;-80
2021/11/05 07:14:14;;;;;;;10.77;7.43;;;;;;;6.39;70.59;98815.50;2055330;87;21003;-80
2021/11/05 07:17:15;;;;;;;10.63;7.40;;;;;;;6.45;70.58;98822.57;2055537;87;21003;-80
2021/11/05 07:20:15;;;;;;;10.10;8.17;;;;;;;6.53;70.38;98822.36;2055268;87;20971;-81
2021/11/05 07:23:16;;;;;;;10.80;7.13;;;;;;;6.63;70.21;98824.37;2055106;87;20960;-81
2021/11/05 07:26:17;;;;;;;9.47;7.53;;;;;;;6.69;70.04;98825.41;2055614;87;21027;-77
2021/11/05 07:29:23;;;;;;;82.67;12.73;;;;;;;6.76;69.71;98836.83;2056670;87;21050;-80
2021/11/05 07:32:19;;;;;;;10.53;8.17;;;;;;;6.80;69.12;98854.23;2055339;87;20972;-80
2021/11/05 07:35:20;;;;;;;11.10;7.60;;;;;;;6.82;69.51;98857.75;2056062;87;21702;-81
2021/11/05 07:38:20;;;;;;;9.17;6.90;;;;;;;6.84;69.06;98859.97;2055805;87;21039;-80
2021/11/05 07:41:21;;;;;;;9.80;7.10;;;;;;;6.80;69.29;98867.63;2056118;87;21055;-80
2021/11/05 07:44:22;;;;;;;9.87;6.63;;;;;;;6.76;69.40;98873.15;2055778;87;21030;-80
2021/11/05 07:47:23;;;;;;;8.20;6.80;;;;;;;6.69;69.16;98872.52;2055849;87;20979;-80
2021/11/05 07:50:24;;;;;;;10.17;6.17;;;;;;;6.70;69.43;98871.69;2056117;87;21002;-79
2021/11/05 07:53:24;;;;;;;12.07;7.30;;;;;;;6.66;69.42;98881.09;2055931;87;20960;-80
2021/11/05 07:56:25;;;;;;;8.67;7.20;;;;;;;6.70;69.35;98876.88;2056347;87;21031;-79
2021/11/05 07:59:25;;;;;;;14.27;6.90;;;;;;;6.96;69.60;98888.87;2055678;87;21416;-81
2021/11/05 08:02:26;;;;;;;9.53;6.70;;;;;;;7.25;68.71;98893.94;2055431;87;21406;-81
2021/11/05 08:05:26;;;;;;;8.57;6.13;;;;;;;7.43;68.48;98882.72;2059657;84;21056;-79
2021/11/05 08:08:28;;;;;;;10.50;6.57;;;;;;;7.60;67.63;98886.61;2098185;84;21434;-80
2021/11/05 08:11:30;;;;;;;11.43;6.37;;;;;;;7.68;67.24;98898.06;2098809;84;20975;-80
2021/11/05 08:14:31;;;;;;;9.93;6.40;;;;;;;7.63;67.10;98909.18;2098483;84;21008;-78
2021/11/05 08:17:31;;;;;;;19.93;7.67;;;;;;;7.63;67.11;98916.55;2098432;84;20971;-81
2021/11/05 08:20:31;;;;;;;13.10;7.00;;;;;;;7.71;67.20;98905.47;2098952;85;21003;-80
2021/11/05 08:23:32;;;;;;;11.50;6.80;;;;;;;7.99;66.52;98913.11;2098974;85;21051;-80
2021/11/05 08:26:32;;;;;;;10.70;6.80;;;;;;;8.32;65.81;98911.67;2098624;84;20980;-80
2021/11/05 08:29:33;;;;;;;10.57;6.57;;;;;;;8.52;65.41;98925.14;2098609;85;20933;-80
2021/11/05 08:32:33;;;;;;;9.20;6.57;;;;;;;8.71;65.29;98934.24;2098592;84;21003;-80
2021/11/05 08:35:34;;;;;;;9.80;6.63;;;;;;;8.80;65.14;98932.70;2098509;85;21008;-79
2021/11/05 08:38:35;;;;;;;10.33;6.37;;;;;;;8.93;63.80;98945.11;2099187;84;21000;-80
2021/11/05 08:41:35;;;;;;;10.93;6.73;;;;;;;9.08;63.54;98954.08;2097799;85;20965;-80
2021/11/05 08:44:36;;;;;;;9.00;6.50;;;;;;;9.33;63.33;98956.30;2097768;85;20984;-80
2021/11/05 08:47:37;;;;;;;11.73;7.10;;;;;;;9.38;61.84;98953.77;2098291;84;20956;-80
2021/11/05 08:50:37;;;;;;;10.20;7.10;;;;;;;9.50;62.61;98953.56;2099174;84;20991;-80
2021/11/05 08:53:38;;;;;;;8.00;5.90;;;;;;;9.69;62.74;98965.65;2099146;84;20965;-80
2021/11/05 09:05:50;;;;;;;7.97;5.80;;;;;;;10.03;60.50;98973.17;2044010;86;21095;-80
2021/11/05 09:08:54;;;;;;;8.63;6.23;;;;;;;10.08;60.17;98993.69;2021996;87;21031;-79
2021/11/05 09:11:54;;;;;;;7.87;5.93;;;;;;;10.04;60.36;98989.70;2044053;87;21031;-79
2021/11/05 09:15:00;;;;;;;8.33;5.90;;;;;;;10.09;59.69;98990.22;2021215;87;21012;-80
2021/11/05 09:18:00;;;;;;;12.57;5.87;;;;;;;10.22;60.00;98987.41;2044474;87;21454;-80
2021/11/05 09:21:02;;;;;;;10.87;5.37;;;;;;;10.24;59.76;98998.75;2043997;87;20972;-80
2021/11/05 09:24:02;;;;;;;8.63;5.27;;;;;;;10.34;57.74;98994.55;2044595;87;21087;-78
2021/11/05 09:27:03;;;;;;;10.23;5.75;;;;;;;10.56;57.73;98986.20;2044577;87;20973;-79
2021/11/05 09:30:03;;;;;;;9.63;5.97;;;;;;;10.79;57.36;98991.31;2045607;87;20984;-80
2021/11/05 09:33:04;;;;;;;9.10;5.10;;;;;;;10.97;57.25;98991.10;2045951;87;21020;-81
2021/11/05 09:36:04;;;;;;;8.23;5.10;;;;;;;11.08;57.08;98994.30;2046035;87;20988;-81
2021/11/05 09:39:05;;;;;;;9.97;5.77;;;;;;;11.03;55.56;98998.59;2045201;87;21107;-81
2021/11/05 09:42:05;;;;;;;6.83;5.25;;;;;;;10.96;54.57;99011.13;2045377;87;21024;-80
2021/11/05 09:45:06;;;;;;;9.13;7.35;;;;;;;11.18;53.98;99009.22;2045417;87;21384;-82
2021/11/05 09:48:09;;;;;;;8.67;6.03;;;;;;;11.36;53.21;99017.73;2046095;87;21502;-80
2021/11/05 09:51:10;;;;;;;9.10;5.03;;;;;;;11.33;55.28;99019.01;2045856;87;21015;-79
2021/11/05 09:54:10;;;;;;;6.15;4.55;;;;;;;11.52;52.22;99017.91;2045383;87;21044;-81
2021/11/05 09:57:11;;;;;;;7.62;5.00;;;;;;;11.53;53.55;99009.20;2045791;87;21518;-79
2021/11/05 10:00:11;;;;;;;5.78;4.70;;;;;;;11.58;53.82;99008.82;2053036;87;21019;-80
2021/11/05 10:03:12;;;;;;;7.58;4.72;;;;;;;11.30;54.15;99003.72;2054648;87;20983;-81
2021/11/05 10:06:13;;;;;;;7.90;4.55;;;;;;;11.29;54.82;99010.69;2054138;84;21047;-80
2021/11/05 10:09:14;;;;;;;8.55;4.42;;;;;;;11.40;53.68;99006.45;2053900;87;21090;-79
2021/11/05 10:12:15;;;;;;;4.92;4.10;;;;;;;11.51;53.48;99010.50;2054149;87;21408;-79
2021/11/05 10:15:15;;;;;;;7.15;4.05;;;;;;;11.55;53.08;99012.70;2054151;87;20975;-80
2021/11/05 10:18:16;;;;;;;6.62;4.12;;;;;;;11.70;52.65;99008.94;2054242;87;21027;-79
2021/11/05 10:21:16;;;;;;;7.10;3.83;;;;;;;11.81;52.81;99004.73;2054856;87;21390;-80
2021/11/05 10:24:19;;;;;;;4.42;3.77;;;;;;;11.88;52.82;99015.69;2054851;87;20963;-79
2021/11/05 10:27:21;;;;;;;5.30;2.98;;;;;;;11.95;52.47;99003.55;2054397;87;21477;-79
2021/11/05 10:30:22;;;;;;;5.53;3.35;;;;;;;11.92;50.23;99013.55;2053886;87;20971;-79
2021/11/05 10:33:24;;;;;;;6.58;3.22;;;;;;;11.99;50.52;99017.09;2054300;87;20955;-79
2021/11/05 10:36:25;;;;;;;5.47;3.40;;;;;;;11.83;50.22;99026.97;2054117;87;21702;-79
2021/11/05 10:39:26;;;;;;;6.45;3.50;;;;;;;11.82;52.02;99017.37;2054722;87;21055;-78
2021/11/05 10:42:26;;;;;;;8.05;3.92;;;;;;;11.66;52.40;99017.62;2055041;87;21392;-80
2021/11/05 10:45:27;;;;;;;4.78;2.85;;;;;;;11.71;52.88;99018.55;2056116;87;21042;-80
2021/11/05 10:48:30;;;;;;;4.47;3.00;;;;;;;11.65;51.88;99017.17;2055426;87;20968;-80
2021/11/05 10:51:30;;;;;;;4.65;3.00;;;;;;;11.53;51.68;99030.12;2055018;87;20966;-80
2021/11/05 10:54:31;;;;;;;4.10;3.02;;;;;;;11.46;52.52;99024.82;2054570;87;21710;-78
2021/11/05 10:57:31;;;;;;;3.47;3.17;;;;;;;11.56;53.16;99021.88;2054746;87;21723;-81
2021/11/05 11:00:32;;;;;;;6.08;3.10;;;;;;;11.53;52.53;99019.23;2054684;87;21011;-80
2021/11/05 11:03:33;;;;;;;4.95;2.98;;;;;;;11.50;52.73;99021.81;2054638;87;21415;-79
2021/11/05 11:06:34;;;;;;;6.72;3.00;;;;;;;11.51;53.02;99014.41;2054494;84;21766;-79
2021/11/05 11:09:34;;;;;;;6.83;3.80;;;;;;;11.46;53.29;99020.02;2055290;87;21434;-78
2021/11/05 11:12:40;;;;;;;7.87;4.40;;;;;;;11.36;53.28;99033.84;2055260;87;20963;-79
2021/11/05 11:15:37;;;;;;;15.03;4.12;;;;;;;11.29;53.38;99029.41;2053672;87;21072;-79
2021/11/05 11:18:38;;;;;;;9.40;3.70;;;;;;;11.35;53.71;99039.94;2055693;87;21055;-80
2021/11/05 11:21:38;;;;;;;6.87;4.10;;;;;;;11.45;53.49;99041.36;2055517;87;21006;-79
2021/11/05 11:24:39;;;;;;;4.60;3.25;;;;;;;11.59;53.87;99043.25;2055403;87;20999;-80
2021/11/05 11:27:39;;;;;;;4.97;4.07;;;;;;;11.66;53.07;99039.41;2055462;87;21013;-80
2021/11/05 11:30:40;;;;;;;8.15;5.40;;;;;;;11.70;52.96;99035.97;2056059;87;20999;-81
2021/11/05 11:33:40;;;;;;;5.35;4.10;;;;;;;11.67;53.11;99032.02;2055907;87;21448;-80
2021/11/05 11:36:41;;;;;;;6.35;4.80;;;;;;;11.59;52.74;99039.33;2055553;87;21383;-80
2021/11/05 11:39:42;;;;;;;6.33;3.90;;;;;;;11.52;53.70;99039.70;2055375;87;21039;-81
2021/11/05 11:42:42;;;;;;;6.63;4.47;;;;;;;11.49;53.59;99036.62;2055822;87;21027;-79
2021/11/05 11:45:43;;;;;;;10.90;4.33;;;;;;;11.43;53.62;99046.13;2056052;87;21008;-80
2021/11/05 11:48:43;;;;;;;7.37;4.60;;;;;;;11.39;53.79;99043.91;2055240;87;21008;-78
2021/11/05 11:51:44;;;;;;;9.98;5.08;;;;;;;11.31;54.28;99053.39;2055978;87;21032;-79
2021/11/05 11:54:45;;;;;;;5.67;4.07;;;;;;;11.34;54.69;99049.51;2055104;87;21012;-79
2021/11/05 11:57:45;;;;;;;5.20;4.17;;;;;;;11.29;54.04;99051.19;2055834;87;21026;-79
2021/11/05 12:00:46;;;;;;;9.00;3.53;;;;;;;11.22;55.31;99041.92;2055537;87;21043;-78
2021/11/05 12:03:46;;;;;;;7.60;4.83;;;;;;;11.15;53.96;99041.84;2055662;87;20967;-80
2021/11/05 12:06:47;;;;;;;9.60;4.23;;;;;;;10.97;53.86;99048.13;2064758;85;21008;-79
2021/11/05 12:09:48;;;;;;;5.53;3.80;;;;;;;10.89;54.63;99051.50;2098375;85;21738;-79
2021/11/05 12:12:48;;;;;;;3.90;3.50;;;;;;;10.95;54.70;99046.36;2098300;84;21007;-79
2021/11/05 12:15:49;;;;;;;7.47;4.90;;;;;;;11.02;54.65;99052.99;2098880;84;21035;-78
2021/11/05 12:18:49;;;;;;;8.70;4.90;;;;;;;11.06;54.07;99050.87;2098616;84;21035;-79
2021/11/05 12:21:50;;;;;;;7.37;4.33;;;;;;;11.07;54.58;99047.83;2099532;84;21016;-79
2021/11/05 12:24:50;;;;;;;10.47;6.03;;;;;;;11.08;54.41;99048.27;2100115;84;21402;-79
2021/11/05 12:27:51;;;;;;;8.23;4.50;;;;;;;11.04;53.75;99059.11;2100341;84;21015;-80
2021/11/05 12:30:51;;;;;;;6.20;4.93;;;;;;;11.01;53.81;99064.72;2099797;84;21003;-79
2021/11/05 12:33:52;;;;;;;7.50;4.30;;;;;;;10.92;54.51;99056.77;2099409;84;20964;-79
2021/11/05 12:36:52;;;;;;;8.10;4.47;;;;;;;10.92;54.38;99065.48;2098390;85;20980;-79
2021/11/05 12:39:54;;;;;;;7.30;4.50;;;;;;;10.95;53.53;99064.64;2099012;84;21301;-80
2021/11/05 12:42:54;;;;;;;5.47;3.97;;;;;;;11.02;54.63;99073.02;2099977;85;21027;-78
2021/11/05 12:45:55;;;;;;;5.27;3.87;;;;;;;10.98;54.59;99069.48;2099877;84;21392;-82
2021/11/05 12:48:56;;;;;;;9.53;4.27;;;;;;;10.95;54.70;99071.17;2100192;85;20972;-83
2021/11/05 12:51:56;;;;;;;7.90;4.20;;;;;;;10.86;54.98;99081.06;2099237;84;21031;-81
2021/11/05 12:54:57;;;;;;;5.30;4.00;;;;;;;10.77;54.91;99082.23;2099488;85;20949;-80
2021/11/05 12:57:57;;;;;;;7.50;3.40;;;;;;;10.69;55.02;99078.63;2098778;84;20995;-79
2021/11/05 13:00:58;;;;;;;5.57;3.50;;;;;;;10.70;55.55;99076.05;2098957;84;21336;-81
2021/11/05 13:03:58;;;;;;;6.17;4.10;;;;;;;10.67;55.93;99077.30;2098868;84;21376;-80
2021/11/05 13:07:01;;;;;;;6.17;3.50;;;;;;;10.65;55.76;99075.09;2090684;83;21003;-82
2021/11/05 13:10:01;;;;;;;16.93;5.53;;;;;;;10.58;55.91;99076.28;2054819;87;20995;-81
2021/11/05 13:13:02;;;;;;;6.80;3.93;;;;;;;10.59;56.62;99070.21;2054249;87;20979;-81
2021/11/05 13:16:02;;;;;;;4.47;3.63;;;;;;;10.59;56.79;99075.00;2054884;87;20948;-78
2021/11/05 13:19:03;;;;;;;8.23;3.90;;;;;;;10.59;56.75;99075.43;2054476;87;21039;-80
2021/11/05 13:22:03;;;;;;;5.67;4.37;;;;;;;10.58;57.14;99079.77;2053598;87;21351;-79
2021/11/05 13:25:04;;;;;;;3.57;3.27;;;;;;;10.59;57.35;99084.14;2052567;87;20975;-81
2021/11/05 13:28:04;;;;;;;6.53;3.67;;;;;;;10.56;57.30;99087.13;2054694;87;20979;-80
2021/11/05 13:31:05;;;;;;;5.97;3.97;;;;;;;10.50;57.46;99087.91;2053686;87;21044;-79
2021/11/05 13:34:05;;;;;;;11.77;5.33;;;;;;;10.46;57.65;99086.11;2054250;87;21656;-80
2021/11/05 13:37:06;;;;;;;12.03;6.10;;;;;;;10.43;57.88;99094.77;2055238;87;21023;-80
2021/11/05 13:40:07;;;;;;;11.37;6.17;;;;;;;10.37;58.17;99095.94;2055866;87;21019;-80
2021/11/05 13:43:07;;;;;;;6.27;4.33;;;;;;;10.31;58.14;99103.66;2055938;87;21035;-79
2021/11/05 13:46:08;;;;;;;4.17;3.77;;;;;;;10.25;58.42;99106.16;2055481;87;20987;-80
2021/11/05 13:49:08;;;;;;;6.00;4.03;;;;;;;10.18;58.22;99111.67;2054931;87;21403;-80
2021/11/05 13:52:09;;;;;;;4.93;4.03;;;;;;;10.13;58.06;99109.83;2054847;87;20951;-80
2021/11/05 13:55:09;;;;;;;12.00;5.17;;;;;;;10.10;58.38;99120.21;2055380;87;21164;-79
2021/11/05 13:58:10;;;;;;;13.43;4.57;;;;;;;10.09;58.25;99123.67;2055492;87;21370;-80
2021/11/05 14:01:10;;;;;;;6.67;4.47;;;;;;;10.07;58.43;99126.25;2055315;87;20986;-80
2021/11/05 14:04:11;;;;;;;10.60;4.80;;;;;;;10.06;58.43;99127.10;2054923;87;21014;-81
2021/11/05 14:07:11;;;;;;;12.30;4.50;;;;;;;10.03;57.91;99130.95;2060809;85;21048;-80
2021/11/05 14:10:12;;;;;;;22.47;5.30;;;;;;;9.97;57.60;99137.36;2096067;84;21032;-81
2021/11/05 14:13:12;;;;;;;4.57;3.83;;;;;;;9.95;58.39;99141.67;2096579;84;21666;-80
2021/11/05 14:16:13;;;;;;;5.20;4.03;;;;;;;9.94;58.38;99142.95;2096506;85;20976;-80
2021/11/05 14:19:14;;;;;;;4.10;3.70;;;;;;;9.91;58.61;99152.89;2096723;84;20984;-81
2021/11/05 14:22:14;;;;;;;5.00;3.60;;;;;;;9.91;58.85;99159.41;2096363;85;20936;-80